Hlavní strana
METAR-TAF:

METAR-TAF

Letiště :

Ronneby, Švédsko

zeměpisná šířka: 56-16N, zeměpisná délka: 015-17E, výška: 58 m

Aktuální stav počasí

Zpráva byla vytvořena před 19 minutami, v 09:20 UTC
Severovýchodní vítr 12 kt, proměnlivý mezi severním a východoseverovýchodním
Teplota 17°C
Vlhkost vzduchu 48%
Tlak 1027 hPa
Viditelnost 10 km a více
Žádná oblačnost pod 1500 m, nevyskytují se cumulonimby.

METAR: ESDF 300920Z 04012KT 010V070 CAVOK 17/06 Q1027

Čas: 11:39 (09:39 UTC)

Předpověď počasí

Zpráva byla vytvořena před 1 hodinou a 9 minutami, v 08:30 UTC
Předpověď platná od 30 v 09 UTC do 30 v 14 UTC
Severovýchodní vítr 13 kt s nárazy do 25 kt
Viditelnost 10 km a více
Žádná oblačnost pod 1500 m, nevyskytují se cumulonimby.

TAF: ESDF 300830Z 3009/3014 04013G25KT CAVOK

Stav a předpovědi počasí z více než 4 000 letišť (zprávy METAR a TAF).

Červené a žluté tečky na mapě představují dostupné meteorologické stanice.

Když kurzor umístíte na tečku, zobrazí se název stanice.

Pak kliknutím zobrazíte stav a předpověď počasí.

Chcete-li změnit mapu, kliknutím na zelené tlačítko se znaménkem +mapu přiblížíte, kliknutím na zelené tlačítko se znaménkem – mapu oddálíte a kliknutím na zelené šipky přejdete na sousední mapy.


METAR-TAF: